createdAt,value
2018-09-28T00:01:44.440Z,5.53
2018-09-28T00:04:13.136Z,5.57
2018-09-28T00:06:41.652Z,3.37
2018-09-28T00:09:11.018Z,7.13
2018-09-28T00:11:39.524Z,4.97
2018-09-28T00:14:08.391Z,4.33
2018-09-28T00:16:36.891Z,4.37
2018-09-28T00:19:06.190Z,5.37
2018-09-28T00:21:34.776Z,6.13
2018-09-28T00:24:03.334Z,5.40
2018-09-28T00:26:32.176Z,4.23
2018-09-28T00:29:00.967Z,3.30
2018-09-28T00:31:29.741Z,3.80
2018-09-28T00:33:58.542Z,7.87
2018-09-28T00:36:27.110Z,4.73
2018-09-28T00:38:55.676Z,3.90
2018-09-28T00:41:24.206Z,4.07
2018-09-28T00:43:52.804Z,5.43
2018-09-28T00:46:21.331Z,6.00
2018-09-28T00:48:49.867Z,5.03
2018-09-28T00:51:18.408Z,5.03
2018-09-28T00:53:47.104Z,8.27
2018-09-28T00:56:15.636Z,3.63
2018-09-28T00:58:50.445Z,4.10
2018-09-28T01:01:18.957Z,4.13
2018-09-28T01:03:47.746Z,4.33
2018-09-28T01:06:16.417Z,4.83
2018-09-28T01:08:45.011Z,5.13
2018-09-28T01:11:13.519Z,4.63
2018-09-28T01:13:42.265Z,3.43
2018-09-28T01:16:10.859Z,4.57
2018-09-28T01:18:39.861Z,3.83
2018-09-28T01:21:08.608Z,7.03
2018-09-28T01:23:37.139Z,6.70
2018-09-28T01:26:05.647Z,3.80
2018-09-28T01:28:34.368Z,3.07
2018-09-28T01:31:02.980Z,2.60
2018-09-28T01:33:31.638Z,5.43
2018-09-28T01:36:00.191Z,3.37
2018-09-28T01:38:28.943Z,4.23
2018-09-28T01:40:57.803Z,3.67
2018-09-28T01:43:26.543Z,3.97
2018-09-28T01:45:55.411Z,3.23
2018-09-28T01:48:24.203Z,6.73
2018-09-28T01:50:52.971Z,3.53
2018-09-28T01:53:21.812Z,3.43
2018-09-28T01:55:50.357Z,3.67
2018-09-28T01:58:18.861Z,3.87
2018-09-28T02:00:47.409Z,4.43
2018-09-28T02:03:15.937Z,5.17
2018-09-28T02:05:44.504Z,4.20
2018-09-28T02:08:13.005Z,3.47
2018-09-28T02:10:41.540Z,5.03
2018-09-28T02:13:10.029Z,3.77
2018-09-28T02:15:38.583Z,4.47
2018-09-28T02:18:07.501Z,3.67
2018-09-28T02:20:36.040Z,4.93
2018-09-28T02:23:04.786Z,4.57
2018-09-28T02:25:33.487Z,3.53
2018-09-28T02:28:01.991Z,3.77
2018-09-28T02:30:30.520Z,3.63
2018-09-28T02:32:59.043Z,4.27
2018-09-28T02:35:27.556Z,5.00
2018-09-28T02:37:56.317Z,6.70
2018-09-28T02:40:24.869Z,6.10
2018-09-28T02:42:53.367Z,6.20
2018-09-28T02:45:21.884Z,4.67
2018-09-28T02:47:50.493Z,3.90
2018-09-28T02:50:19.091Z,4.03
2018-09-28T02:52:47.762Z,4.53
2018-09-28T02:55:16.511Z,5.47
2018-09-28T02:57:45.367Z,3.47
2018-09-28T03:00:13.908Z,4.07
2018-09-28T03:02:42.693Z,3.63
2018-09-28T03:05:11.259Z,3.40
2018-09-28T03:07:40.097Z,4.77
2018-09-28T03:10:08.914Z,3.80
2018-09-28T03:12:37.688Z,4.87
2018-09-28T03:15:06.507Z,4.87
2018-09-28T03:17:35.008Z,4.50
2018-09-28T03:20:03.876Z,5.73
2018-09-28T03:22:32.541Z,5.53
2018-09-28T03:25:01.056Z,6.37
2018-09-28T03:27:29.545Z,4.20
2018-09-28T03:29:58.195Z,3.40
2018-09-28T03:32:26.749Z,4.20
2018-09-28T03:34:55.434Z,4.17
2018-09-28T03:37:23.942Z,6.47
2018-09-28T03:39:52.452Z,3.90
2018-09-28T03:42:21.009Z,7.13
2018-09-28T03:44:49.515Z,4.57
2018-09-28T03:47:18.297Z,3.70
2018-09-28T03:49:46.821Z,4.03
2018-09-28T03:52:15.393Z,3.70
2018-09-28T03:54:43.903Z,4.97
2018-09-28T03:57:12.700Z,8.43
2018-09-28T03:59:41.420Z,6.10
2018-09-28T04:02:09.976Z,7.53
2018-09-28T04:04:38.499Z,3.83
2018-09-28T04:07:07.059Z,4.93
2018-09-28T04:09:36.421Z,4.63
2018-09-28T04:12:04.972Z,5.70
2018-09-28T04:14:33.651Z,5.10
2018-09-28T04:17:02.261Z,22.50
2018-09-28T04:19:30.780Z,16.13
2018-09-28T04:22:00.527Z,10.47
2018-09-28T04:24:30.185Z,11.33
2018-09-28T04:26:58.792Z,10.87
2018-09-28T04:29:27.355Z,5.33
2018-09-28T04:31:55.921Z,5.13
2018-09-28T04:34:24.477Z,11.27
2018-09-28T04:36:53.022Z,11.17
2018-09-28T04:39:22.003Z,8.13
2018-09-28T04:41:50.544Z,6.93
2018-09-28T04:44:19.037Z,9.57
2018-09-28T04:46:47.555Z,11.10
2018-09-28T04:49:16.267Z,5.27
2018-09-28T04:51:44.792Z,5.40
2018-09-28T04:54:13.284Z,5.90
2018-09-28T04:56:41.800Z,5.57
2018-09-28T04:59:10.516Z,9.73
2018-09-28T05:01:39.079Z,8.37
2018-09-28T05:04:07.702Z,7.73
2018-09-28T05:06:36.232Z,12.53
2018-09-28T05:09:08.228Z,8.13
2018-09-28T05:11:36.759Z,7.03
2018-09-28T05:14:05.252Z,12.40
2018-09-28T05:16:33.991Z,8.63
2018-09-28T05:19:03.023Z,8.27
2018-09-28T05:21:31.764Z,8.60
2018-09-28T05:24:00.606Z,8.70
2018-09-28T05:26:29.112Z,9.87
2018-09-28T05:28:57.894Z,7.40
2018-09-28T05:31:26.741Z,8.27
2018-09-28T05:33:55.352Z,8.93
2018-09-28T05:36:24.510Z,6.90
2018-09-28T05:38:53.160Z,6.47
2018-09-28T05:41:22.084Z,7.00
2018-09-28T05:43:50.649Z,9.10
2018-09-28T05:46:19.433Z,7.13
2018-09-28T05:48:48.053Z,10.47
2018-09-28T05:51:16.595Z,11.77
2018-09-28T05:53:45.221Z,11.53
2018-09-28T05:56:13.774Z,11.13
2018-09-28T05:58:47.544Z,7.07
2018-09-28T06:01:21.361Z,10.37
2018-09-28T06:03:55.375Z,5.53
2018-09-28T06:06:23.875Z,5.77
2018-09-28T06:08:52.383Z,6.23
2018-09-28T06:11:20.877Z,7.63
2018-09-28T06:13:49.393Z,7.43
2018-09-28T06:16:17.900Z,12.53
2018-09-28T06:18:46.561Z,8.47
2018-09-28T06:21:15.207Z,8.27
2018-09-28T06:23:43.724Z,12.87
2018-09-28T06:26:12.211Z,8.77
2018-09-28T06:28:40.740Z,8.97
2018-09-28T06:31:09.236Z,10.33
2018-09-28T06:33:37.784Z,10.57
2018-09-28T06:36:06.498Z,7.50
2018-09-28T06:38:35.064Z,10.87
2018-09-28T06:41:03.735Z,9.83
2018-09-28T06:43:32.424Z,8.13
2018-09-28T06:46:00.932Z,7.27
2018-09-28T06:48:29.512Z,8.10
2018-09-28T06:50:58.035Z,8.20
2018-09-28T06:53:26.577Z,6.80
2018-09-28T06:55:55.098Z,9.03
2018-09-28T06:58:23.651Z,5.30
2018-09-28T07:00:52.169Z,4.77
2018-09-28T07:03:20.724Z,5.70
2018-09-28T07:05:49.431Z,5.93
2018-09-28T07:08:17.999Z,6.70
2018-09-28T07:10:46.609Z,8.07
2018-09-28T07:13:15.213Z,7.00
2018-09-28T07:15:43.724Z,7.47
2018-09-28T07:18:12.319Z,8.80
2018-09-28T07:20:40.814Z,6.67
2018-09-28T07:23:09.360Z,7.97
2018-09-28T07:25:37.928Z,7.77
2018-09-28T07:28:06.537Z,6.70
2018-09-28T07:30:35.084Z,6.93
2018-09-28T07:33:03.629Z,6.40
2018-09-28T07:35:32.204Z,8.33
2018-09-28T07:38:00.713Z,6.00
2018-09-28T07:40:29.279Z,9.70
2018-09-28T07:42:57.800Z,8.37
2018-09-28T07:45:26.375Z,7.90
2018-09-28T07:47:54.924Z,9.27
2018-09-28T07:50:23.491Z,6.17
2018-09-28T07:52:52.011Z,7.13
2018-09-28T07:55:20.564Z,9.33
2018-09-28T07:57:49.084Z,9.10
2018-09-28T08:00:17.634Z,8.40
2018-09-28T08:02:46.149Z,8.07
2018-09-28T08:05:14.712Z,9.67
2018-09-28T08:07:43.223Z,7.30
2018-09-28T08:10:11.808Z,7.80
2018-09-28T08:12:40.327Z,8.77
2018-09-28T08:15:08.908Z,8.27
2018-09-28T08:17:37.423Z,5.77
2018-09-28T08:20:06.125Z,9.20
2018-09-28T08:22:34.648Z,8.23
2018-09-28T08:25:03.675Z,6.77
2018-09-28T08:27:32.175Z,4.90
2018-09-28T08:30:00.746Z,8.30
2018-09-28T08:32:29.237Z,7.33
2018-09-28T08:34:57.780Z,6.13
2018-09-28T08:37:26.259Z,6.30
2018-09-28T08:39:54.821Z,6.53
2018-09-28T08:42:23.371Z,5.47
2018-09-28T08:44:51.892Z,7.33
2018-09-28T08:47:20.382Z,10.10
2018-09-28T08:49:48.905Z,7.50
2018-09-28T08:52:17.405Z,14.70
2018-09-28T08:54:45.961Z,11.03
2018-09-28T08:57:14.460Z,6.43
2018-09-28T08:59:43.089Z,5.37
2018-09-28T09:02:11.663Z,6.93
2018-09-28T09:04:40.176Z,5.90
2018-09-28T09:07:08.707Z,4.80
2018-09-28T09:09:37.252Z,5.70
2018-09-28T09:12:05.761Z,6.13
2018-09-28T09:14:34.285Z,5.87
2018-09-28T09:17:02.883Z,8.07
2018-09-28T09:19:31.465Z,5.50
2018-09-28T09:22:00.009Z,5.83
2018-09-28T09:24:28.627Z,8.77
2018-09-28T09:26:57.242Z,8.87
2018-09-28T09:29:25.732Z,7.80
2018-09-28T09:31:54.248Z,5.50
2018-09-28T09:34:22.780Z,5.00
2018-09-28T09:36:51.324Z,6.40
2018-09-28T09:39:19.956Z,9.53
2018-09-28T09:41:48.529Z,6.87
2018-09-28T09:44:17.029Z,10.53
2018-09-28T09:46:45.606Z,9.43
2018-09-28T09:49:14.096Z,4.83
2018-09-28T09:51:42.623Z,4.57
2018-09-28T09:54:11.252Z,5.50
2018-09-28T09:56:39.808Z,6.97
2018-09-28T09:59:08.341Z,6.07
2018-09-28T10:01:42.282Z,8.20
2018-09-28T10:04:11.374Z,7.93
2018-09-28T10:06:39.941Z,9.23
2018-09-28T10:09:11.527Z,6.07
2018-09-28T10:11:40.316Z,6.93
2018-09-28T10:14:08.911Z,7.03
2018-09-28T10:16:37.455Z,7.33
2018-09-28T10:19:06.355Z,7.83
2018-09-28T10:21:34.927Z,10.43
2018-09-28T10:24:03.466Z,12.17
2018-09-28T10:26:32.040Z,10.17
2018-09-28T10:29:00.552Z,6.13
2018-09-28T10:31:29.095Z,8.40
2018-09-28T10:33:57.624Z,6.23
2018-09-28T10:36:26.201Z,5.57
2018-09-28T10:38:54.736Z,10.40
2018-09-28T10:41:23.299Z,7.63
2018-09-28T10:43:52.093Z,7.27
2018-09-28T10:46:20.645Z,9.23
2018-09-28T10:48:49.161Z,7.70
2018-09-28T10:51:17.823Z,7.73
2018-09-28T10:53:46.288Z,7.73
2018-09-28T10:56:14.845Z,8.93
2018-09-28T10:58:43.418Z,6.00
2018-09-28T11:01:11.936Z,6.90
2018-09-28T11:03:40.492Z,5.90
2018-09-28T11:06:09.016Z,6.40
2018-09-28T11:08:37.545Z,7.27
2018-09-28T11:11:06.060Z,5.27
2018-09-28T11:13:34.552Z,5.33
2018-09-28T11:16:03.155Z,5.20
2018-09-28T11:18:31.652Z,5.63
2018-09-28T11:21:00.262Z,8.27
2018-09-28T11:23:28.745Z,5.10
2018-09-28T11:25:57.372Z,5.33
2018-09-28T11:28:25.905Z,7.37
2018-09-28T11:30:54.400Z,6.00
2018-09-28T11:33:22.966Z,7.40
2018-09-28T11:35:51.492Z,6.90
2018-09-28T11:38:20.349Z,6.03
2018-09-28T11:40:48.869Z,6.50
2018-09-28T11:43:17.478Z,4.83
2018-09-28T11:45:46.098Z,7.80
2018-09-28T11:48:14.595Z,7.37
2018-09-28T11:50:43.162Z,5.87
2018-09-28T11:53:11.721Z,5.20
2018-09-28T11:55:40.252Z,3.87
2018-09-28T11:58:08.812Z,5.17
2018-09-28T12:00:37.316Z,4.70
2018-09-28T12:03:05.913Z,5.67
2018-09-28T12:05:34.415Z,9.97
2018-09-28T12:08:02.953Z,6.07
2018-09-28T12:10:31.467Z,5.63
2018-09-28T12:13:00.008Z,4.77
2018-09-28T12:15:28.621Z,7.10
2018-09-28T12:17:57.591Z,3.77
2018-09-28T12:20:26.083Z,4.47
2018-09-28T12:22:54.704Z,7.30
2018-09-28T12:25:23.203Z,4.93
2018-09-28T12:27:51.996Z,8.43
2018-09-28T12:30:20.557Z,6.20
2018-09-28T12:32:49.120Z,11.70
2018-09-28T12:35:17.839Z,6.30
2018-09-28T12:37:46.647Z,7.80
2018-09-28T12:40:15.200Z,6.37
2018-09-28T12:42:44.765Z,3.83
2018-09-28T12:45:13.254Z,4.60
2018-09-28T12:47:42.117Z,3.67
2018-09-28T12:50:10.677Z,4.93
2018-09-28T12:52:39.207Z,2.90
2018-09-28T12:55:08.081Z,3.80
2018-09-28T12:57:36.760Z,4.47
2018-09-28T13:00:05.653Z,5.63
2018-09-28T13:02:34.350Z,4.87
2018-09-28T13:05:02.894Z,3.67
2018-09-28T13:07:31.796Z,7.80
2018-09-28T13:10:00.312Z,5.53
2018-09-28T13:12:29.311Z,4.83
2018-09-28T13:14:57.951Z,5.87
2018-09-28T13:17:26.507Z,5.93
2018-09-28T13:19:55.759Z,4.60
2018-09-28T13:22:24.294Z,5.70
2018-09-28T13:24:53.146Z,6.37
2018-09-28T13:27:21.669Z,9.10
2018-09-28T13:29:50.500Z,7.07
2018-09-28T13:32:19.088Z,7.33
2018-09-28T13:34:47.605Z,6.53
2018-09-28T13:37:16.127Z,7.07
2018-09-28T13:39:44.946Z,7.43
2018-09-28T13:42:13.500Z,5.60
2018-09-28T13:44:42.385Z,9.80
2018-09-28T13:47:10.869Z,7.40
2018-09-28T13:49:39.540Z,7.67
2018-09-28T13:52:08.097Z,4.50
2018-09-28T13:54:37.748Z,7.20
2018-09-28T13:57:06.243Z,8.83
2018-09-28T13:59:34.893Z,11.10
2018-09-28T14:02:03.523Z,7.07
2018-09-28T14:04:32.169Z,8.07
2018-09-28T14:07:00.771Z,8.43
2018-09-28T14:09:29.550Z,5.37
2018-09-28T14:11:58.043Z,8.03
2018-09-28T14:14:26.832Z,8.70
2018-09-28T14:16:55.281Z,6.93
2018-09-28T14:19:24.120Z,8.53
2018-09-28T14:21:52.634Z,10.20
2018-09-28T14:24:21.334Z,8.83
2018-09-28T14:26:49.904Z,9.77
2018-09-28T14:29:19.484Z,9.23
2018-09-28T14:31:48.025Z,7.63
2018-09-28T14:34:16.623Z,9.17
2018-09-28T14:36:45.416Z,6.60
2018-09-28T14:39:14.331Z,10.30
2018-09-28T14:41:42.877Z,9.47
2018-09-28T14:44:11.821Z,11.23
2018-09-28T14:46:40.465Z,12.50
2018-09-28T14:49:09.300Z,13.47
2018-09-28T14:51:37.848Z,15.40
2018-09-28T14:54:06.674Z,13.20
2018-09-28T14:56:35.246Z,11.43
2018-09-28T14:59:04.238Z,11.53
2018-09-28T15:01:32.887Z,14.20
2018-09-28T15:04:01.465Z,11.60
2018-09-28T15:06:30.029Z,16.43
2018-09-28T15:08:58.744Z,10.47
2018-09-28T15:11:27.256Z,13.73
2018-09-28T15:13:55.800Z,12.30
2018-09-28T15:16:24.606Z,11.57
2018-09-28T15:18:53.098Z,11.50
2018-09-28T15:21:21.927Z,10.93
2018-09-28T15:23:50.447Z,13.00
2018-09-28T15:26:19.116Z,15.03
2018-09-28T15:28:47.643Z,12.07
2018-09-28T15:31:16.208Z,15.10
2018-09-28T15:33:44.776Z,16.77
2018-09-28T15:36:13.604Z,10.10
2018-09-28T15:38:42.104Z,9.90
2018-09-28T15:41:10.689Z,10.40
2018-09-28T15:43:39.548Z,12.70
2018-09-28T15:46:08.129Z,9.17
2018-09-28T15:48:36.944Z,7.80
2018-09-28T15:51:05.584Z,9.33
2018-09-28T15:53:34.099Z,7.07
2018-09-28T15:56:02.656Z,6.87
2018-09-28T15:58:31.155Z,5.97
2018-09-28T16:00:59.712Z,8.60
2018-09-28T16:03:28.238Z,5.67
2018-09-28T16:05:56.943Z,4.80
2018-09-28T16:08:25.503Z,4.53
2018-09-28T16:10:54.085Z,5.73
2018-09-28T16:13:22.592Z,4.23
2018-09-28T16:15:51.261Z,6.50
2018-09-28T16:18:19.800Z,3.50
2018-09-28T16:20:48.349Z,3.33
2018-09-28T16:23:16.847Z,2.50
2018-09-28T16:25:45.415Z,2.83
2018-09-28T16:28:13.944Z,2.37
2018-09-28T16:30:42.559Z,2.00
2018-09-28T16:33:11.073Z,1.80
2018-09-28T16:35:39.707Z,1.40
2018-09-28T16:38:08.195Z,2.20
2018-09-28T16:40:36.981Z,3.30
2018-09-28T16:43:05.540Z,1.50
2018-09-28T16:45:34.155Z,1.00
2018-09-28T16:48:02.681Z,1.37
2018-09-28T16:50:31.365Z,1.70
2018-09-28T16:52:59.891Z,3.97
2018-09-28T16:55:28.548Z,1.67
2018-09-28T16:57:57.132Z,1.50
2018-09-28T17:00:25.965Z,1.30
2018-09-28T17:02:54.477Z,1.40
2018-09-28T17:05:23.340Z,2.00
2018-09-28T17:07:52.144Z,1.40
2018-09-28T17:10:20.656Z,1.50
2018-09-28T17:12:49.605Z,1.60
2018-09-28T17:15:18.150Z,1.80
2018-09-28T17:17:46.979Z,1.93
2018-09-28T17:20:15.501Z,2.40
2018-09-28T17:22:44.381Z,5.47
2018-09-28T17:25:12.977Z,3.17
2018-09-28T17:27:41.919Z,3.90
2018-09-28T17:30:10.436Z,7.23
2018-09-28T17:32:39.189Z,2.07
2018-09-28T17:35:07.773Z,4.07
2018-09-28T17:37:36.600Z,2.13
2018-09-28T17:40:05.223Z,3.77
2018-09-28T17:42:34.037Z,3.33
2018-09-28T17:45:02.597Z,1.60
2018-09-28T17:47:31.514Z,3.80
2018-09-28T17:50:00.052Z,2.93
2018-09-28T17:52:29.016Z,2.00
2018-09-28T17:54:57.552Z,7.37
2018-09-28T17:57:26.461Z,3.70
2018-09-28T17:59:54.993Z,5.67
2018-09-28T18:02:24.352Z,2.63
2018-09-28T18:04:52.872Z,3.03
2018-09-28T18:07:22.233Z,6.07
2018-09-28T18:09:50.731Z,1.93
2018-09-28T18:12:19.708Z,2.67
2018-09-28T18:14:48.216Z,6.47
2018-09-28T18:17:17.692Z,4.27
2018-09-28T18:19:46.212Z,6.30
2018-09-28T18:22:15.718Z,4.23
2018-09-28T18:24:44.231Z,3.17
2018-09-28T18:27:13.314Z,2.97
2018-09-28T18:29:41.792Z,7.93
2018-09-28T18:32:10.944Z,5.53
2018-09-28T18:34:39.445Z,3.43
2018-09-28T18:37:08.448Z,12.40
2018-09-28T18:39:36.951Z,3.93
2018-09-28T18:42:06.020Z,6.17
2018-09-28T18:44:34.536Z,5.20
2018-09-28T18:47:03.061Z,7.43
2018-09-28T18:49:32.047Z,6.43
2018-09-28T18:52:00.568Z,5.67
2018-09-28T18:54:29.638Z,8.03
2018-09-28T18:56:58.140Z,7.17
2018-09-28T18:59:27.127Z,7.53
2018-09-28T19:01:55.642Z,6.93
2018-09-28T19:04:24.683Z,7.93
2018-09-28T19:06:53.208Z,5.77
2018-09-28T19:09:22.575Z,10.30
2018-09-28T19:11:51.088Z,8.17
2018-09-28T19:14:19.942Z,5.77
2018-09-28T19:16:48.489Z,5.90
2018-09-28T19:19:17.525Z,6.30
2018-09-28T19:21:46.093Z,5.47
2018-09-28T19:24:14.988Z,4.20
2018-09-28T19:26:43.505Z,4.53
2018-09-28T19:29:13.079Z,5.87
2018-09-28T19:31:41.616Z,6.63
2018-09-28T19:34:11.890Z,7.10
2018-09-28T19:36:40.409Z,8.80
2018-09-28T19:39:10.505Z,6.23
2018-09-28T19:41:39.988Z,10.80
2018-09-28T19:44:09.198Z,4.20
2018-09-28T19:46:37.719Z,9.07
2018-09-28T19:49:06.772Z,9.17
2018-09-28T19:51:35.325Z,13.40
2018-09-28T19:54:04.053Z,7.70
2018-09-28T19:56:32.568Z,7.17
2018-09-28T19:59:01.309Z,8.67
2018-09-28T20:01:29.852Z,6.70
2018-09-28T20:03:58.437Z,7.40
2018-09-28T20:06:26.961Z,5.87
2018-09-28T20:08:55.620Z,7.93
2018-09-28T20:11:24.139Z,8.53
2018-09-28T20:13:53.429Z,6.93
2018-09-28T20:16:21.941Z,6.53
2018-09-28T20:18:50.903Z,8.23
2018-09-28T20:21:19.417Z,8.10
2018-09-28T20:23:48.380Z,7.57
2018-09-28T20:26:16.891Z,7.83
2018-09-28T20:28:45.680Z,12.60
2018-09-28T20:31:14.192Z,6.47
2018-09-28T20:33:42.784Z,6.73
2018-09-28T20:36:11.292Z,11.80
2018-09-28T20:38:39.804Z,7.43
2018-09-28T20:41:08.368Z,8.60
2018-09-28T20:43:36.885Z,6.00
2018-09-28T20:46:05.512Z,7.23
2018-09-28T20:48:34.013Z,5.60
2018-09-28T20:51:02.610Z,6.83
2018-09-28T20:53:31.128Z,9.57
2018-09-28T20:55:59.735Z,6.50
2018-09-28T20:58:28.241Z,8.03
2018-09-28T21:00:56.887Z,5.00
2018-09-28T21:03:25.364Z,7.27
2018-09-28T21:05:53.952Z,6.67
2018-09-28T21:08:22.480Z,9.37
2018-09-28T21:10:51.052Z,9.07
2018-09-28T21:13:19.620Z,8.87
2018-09-28T21:15:48.237Z,9.50
2018-09-28T21:18:16.741Z,6.87
2018-09-28T21:20:45.361Z,9.13
2018-09-28T21:23:13.857Z,7.23
2018-09-28T21:25:42.457Z,7.53
2018-09-28T21:28:10.959Z,8.53
2018-09-28T21:30:39.561Z,9.10
2018-09-28T21:33:08.068Z,8.33
2018-09-28T21:35:36.665Z,7.47
2018-09-28T21:38:05.212Z,5.93
2018-09-28T21:40:33.740Z,9.10
2018-09-28T21:43:02.250Z,9.57
2018-09-28T21:45:30.800Z,7.73
2018-09-28T21:47:59.305Z,7.47
2018-09-28T21:50:27.848Z,11.93
2018-09-28T21:52:56.343Z,8.30
2018-09-28T21:55:24.888Z,6.23
2018-09-28T21:57:53.379Z,8.77
2018-09-28T22:00:22.011Z,9.23
2018-09-28T22:02:50.508Z,4.33
2018-09-28T22:05:19.058Z,8.07
2018-09-28T22:07:47.637Z,7.30
2018-09-28T22:10:16.224Z,11.77
2018-09-28T22:12:44.740Z,11.60
2018-09-28T22:15:13.292Z,9.23
2018-09-28T22:17:41.806Z,9.70
2018-09-28T22:20:10.400Z,9.63
2018-09-28T22:22:38.930Z,7.87
2018-09-28T22:25:07.500Z,11.20
2018-09-28T22:27:36.052Z,10.10
2018-09-28T22:30:04.657Z,8.27
2018-09-28T22:32:33.233Z,7.07
2018-09-28T22:35:01.827Z,11.73
2018-09-28T22:37:30.369Z,9.43
2018-09-28T22:39:58.909Z,4.73
2018-09-28T22:42:27.457Z,6.77
2018-09-28T22:44:55.983Z,10.10
2018-09-28T22:47:24.532Z,5.43
2018-09-28T22:49:53.037Z,8.23
2018-09-28T22:52:21.571Z,4.03
2018-09-28T22:54:50.093Z,10.43
2018-09-28T22:57:18.643Z,9.73
2018-09-28T22:59:47.153Z,4.77
2018-09-28T23:02:15.716Z,6.37
2018-09-28T23:04:44.223Z,5.17
2018-09-28T23:07:12.794Z,8.70
2018-09-28T23:09:41.325Z,6.77
2018-09-28T23:12:09.905Z,7.70
2018-09-28T23:14:38.420Z,6.63
2018-09-28T23:17:07.213Z,10.27
2018-09-28T23:19:35.984Z,10.43
2018-09-28T23:22:04.612Z,5.10
2018-09-28T23:24:33.129Z,8.73
2018-09-28T23:27:01.657Z,5.50
2018-09-28T23:29:30.152Z,5.53
2018-09-28T23:31:58.692Z,2.90
2018-09-28T23:34:27.256Z,4.57
2018-09-28T23:36:55.779Z,9.73
2018-09-28T23:39:24.273Z,5.37
2018-09-28T23:41:52.810Z,8.73
2018-09-28T23:44:21.321Z,10.80
2018-09-28T23:46:49.848Z,4.60
2018-09-28T23:49:18.344Z,3.37
2018-09-28T23:51:46.872Z,6.03
2018-09-28T23:54:15.393Z,7.17
2018-09-28T23:56:43.972Z,8.70
2018-09-28T23:59:12.524Z,9.00
